sensor_id;sensor_type;location;lat;lon;timestamp;temperature;humidity
76040;SHT30;64736;50.462;4.850;2023-03-04T00:01:59;0.15;83.08
76040;SHT30;64736;50.462;4.850;2023-03-04T00:04:25;0.70;82.67
76040;SHT30;64736;50.462;4.850;2023-03-04T00:06:50;0.47;80.57
76040;SHT30;64736;50.462;4.850;2023-03-04T00:09:16;0.92;80.62
76040;SHT30;64736;50.462;4.850;2023-03-04T00:11:42;0.35;81.18
76040;SHT30;64736;50.462;4.850;2023-03-04T00:14:08;0.91;81.08
76040;SHT30;64736;50.462;4.850;2023-03-04T00:16:34;0.28;81.10
76040;SHT30;64736;50.462;4.850;2023-03-04T00:18:59;-0.06;83.29
76040;SHT30;64736;50.462;4.850;2023-03-04T00:21:25;0.11;83.56
76040;SHT30;64736;50.462;4.850;2023-03-04T00:23:51;0.70;82.69
76040;SHT30;64736;50.462;4.850;2023-03-04T00:26:17;0.23;82.15
76040;SHT30;64736;50.462;4.850;2023-03-04T00:28:42;0.13;83.22
76040;SHT30;64736;50.462;4.850;2023-03-04T00:31:09;0.66;82.89
76040;SHT30;64736;50.462;4.850;2023-03-04T00:33:35;0.25;82.24
76040;SHT30;64736;50.462;4.850;2023-03-04T00:36:02;0.19;83.39
76040;SHT30;64736;50.462;4.850;2023-03-04T00:38:29;0.95;80.57
76040;SHT30;64736;50.462;4.850;2023-03-04T00:40:54;0.20;82.74
76040;SHT30;64736;50.462;4.850;2023-03-04T00:43:21;0.02;84.03
76040;SHT30;64736;50.462;4.850;2023-03-04T00:45:46;0.01;84.48
76040;SHT30;64736;50.462;4.850;2023-03-04T00:48:14;0.54;84.27
76040;SHT30;64736;50.462;4.850;2023-03-04T00:50:41;0.73;82.80
76040;SHT30;64736;50.462;4.850;2023-03-04T00:53:07;0.61;82.17
76040;SHT30;64736;50.462;4.850;2023-03-04T00:55:32;0.19;83.67
76040;SHT30;64736;50.462;4.850;2023-03-04T00:57:58;0.35;83.86
76040;SHT30;64736;50.462;4.850;2023-03-04T01:00:24;0.39;82.48
76040;SHT30;64736;50.462;4.850;2023-03-04T01:02:50;0.64;83.10
76040;SHT30;64736;50.462;4.850;2023-03-04T01:05:16;0.88;82.50
76040;SHT30;64736;50.462;4.850;2023-03-04T01:07:41;1.26;80.47
76040;SHT30;64736;50.462;4.850;2023-03-04T01:10:09;1.50;78.40
76040;SHT30;64736;50.462;4.850;2023-03-04T01:12:35;1.18;78.91
76040;SHT30;64736;50.462;4.850;2023-03-04T01:15:02;0.70;80.72
76040;SHT30;64736;50.462;4.850;2023-03-04T01:17:29;1.31;80.84
76040;SHT30;64736;50.462;4.850;2023-03-04T01:19:54;1.31;79.18
76040;SHT30;64736;50.462;4.850;2023-03-04T01:22:20;0.67;81.35
76040;SHT30;64736;50.462;4.850;2023-03-04T01:24:46;0.52;82.31
76040;SHT30;64736;50.462;4.850;2023-03-04T01:27:11;0.88;81.47
76040;SHT30;64736;50.462;4.850;2023-03-04T01:29:37;0.60;82.58
76040;SHT30;64736;50.462;4.850;2023-03-04T01:32:03;0.84;82.35
76040;SHT30;64736;50.462;4.850;2023-03-04T01:34:29;1.34;81.61
76040;SHT30;64736;50.462;4.850;2023-03-04T01:36:55;1.18;80.14
76040;SHT30;64736;50.462;4.850;2023-03-04T01:39:21;1.22;81.72
76040;SHT30;64736;50.462;4.850;2023-03-04T01:41:46;1.70;78.85
76040;SHT30;64736;50.462;4.850;2023-03-04T01:44:12;0.87;80.04
76040;SHT30;64736;50.462;4.850;2023-03-04T01:46:49;0.46;83.27
76040;SHT30;64736;50.462;4.850;2023-03-04T01:49:16;1.14;82.75
76040;SHT30;64736;50.462;4.850;2023-03-04T01:51:44;1.56;79.42
76040;SHT30;64736;50.462;4.850;2023-03-04T01:54:11;0.83;80.07
76040;SHT30;64736;50.462;4.850;2023-03-04T01:56:38;0.45;83.28
76040;SHT30;64736;50.462;4.850;2023-03-04T01:59:22;0.87;83.24
76040;SHT30;64736;50.462;4.850;2023-03-04T02:01:51;0.89;82.27
76040;SHT30;64736;50.462;4.850;2023-03-04T02:04:21;0.53;83.26
76040;SHT30;64736;50.462;4.850;2023-03-04T02:06:49;1.08;81.99
76040;SHT30;64736;50.462;4.850;2023-03-04T02:09:15;0.83;82.03
76040;SHT30;64736;50.462;4.850;2023-03-04T02:11:42;1.67;79.76
76040;SHT30;64736;50.462;4.850;2023-03-04T02:14:10;1.84;77.91
76040;SHT30;64736;50.462;4.850;2023-03-04T02:16:36;1.29;79.26
76040;SHT30;64736;50.462;4.850;2023-03-04T02:19:06;1.70;80.30
76040;SHT30;64736;50.462;4.850;2023-03-04T02:21:36;1.98;77.85
76040;SHT30;64736;50.462;4.850;2023-03-04T02:26:35;1.77;78.03
76040;SHT30;64736;50.462;4.850;2023-03-04T02:29:02;1.05;80.43
76040;SHT30;64736;50.462;4.850;2023-03-04T02:31:43;0.68;83.05
76040;SHT30;64736;50.462;4.850;2023-03-04T02:34:21;0.53;83.98
76040;SHT30;64736;50.462;4.850;2023-03-04T02:36:50;1.02;83.85
76040;SHT30;64736;50.462;4.850;2023-03-04T02:41:52;1.83;80.21
76040;SHT30;64736;50.462;4.850;2023-03-04T02:44:25;1.95;78.48
76040;SHT30;64736;50.462;4.850;2023-03-04T02:46:52;2.00;78.54
76040;SHT30;64736;50.462;4.850;2023-03-04T02:49:19;1.29;79.96
76040;SHT30;64736;50.462;4.850;2023-03-04T02:51:45;0.99;82.59
76040;SHT30;64736;50.462;4.850;2023-03-04T02:54:19;0.70;83.31
76040;SHT30;64736;50.462;4.850;2023-03-04T02:56:50;1.52;83.02
76040;SHT30;64736;50.462;4.850;2023-03-04T02:59:16;1.95;79.95
76040;SHT30;64736;50.462;4.850;2023-03-04T03:01:43;2.14;79.00
76040;SHT30;64736;50.462;4.850;2023-03-04T03:04:10;2.07;79.26
76040;SHT30;64736;50.462;4.850;2023-03-04T03:06:36;1.24;81.37
76040;SHT30;64736;50.462;4.850;2023-03-04T03:09:02;0.63;83.77
76040;SHT30;64736;50.462;4.850;2023-03-04T03:11:28;0.77;84.37
76040;SHT30;64736;50.462;4.850;2023-03-04T03:13:53;1.34;83.65
76040;SHT30;64736;50.462;4.850;2023-03-04T03:16:19;1.84;80.94
76040;SHT30;64736;50.462;4.850;2023-03-04T03:18:45;1.56;80.66
76040;SHT30;64736;50.462;4.850;2023-03-04T03:21:10;1.09;81.98
76040;SHT30;64736;50.462;4.850;2023-03-04T03:23:36;1.46;81.96
76040;SHT30;64736;50.462;4.850;2023-03-04T03:26:02;2.04;80.60
76040;SHT30;64736;50.462;4.850;2023-03-04T03:28:28;2.25;78.73
76040;SHT30;64736;50.462;4.850;2023-03-04T03:30:54;2.20;78.47
76040;SHT30;64736;50.462;4.850;2023-03-04T03:33:19;1.98;79.11
76040;SHT30;64736;50.462;4.850;2023-03-04T03:35:45;1.05;82.56
76040;SHT30;64736;50.462;4.850;2023-03-04T03:38:11;0.81;83.78
76040;SHT30;64736;50.462;4.850;2023-03-04T03:40:37;0.97;83.57
76040;SHT30;64736;50.462;4.850;2023-03-04T03:43:03;1.16;82.94
76040;SHT30;64736;50.462;4.850;2023-03-04T03:45:28;1.09;82.96
76040;SHT30;64736;50.462;4.850;2023-03-04T03:47:54;1.49;82.66
76040;SHT30;64736;50.462;4.850;2023-03-04T03:50:20;1.85;81.40
76040;SHT30;64736;50.462;4.850;2023-03-04T03:52:45;2.26;78.71
76040;SHT30;64736;50.462;4.850;2023-03-04T03:55:11;1.97;79.43
76040;SHT30;64736;50.462;4.850;2023-03-04T03:57:37;2.05;80.83
76040;SHT30;64736;50.462;4.850;2023-03-04T04:00:04;2.24;79.51
76040;SHT30;64736;50.462;4.850;2023-03-04T04:02:30;1.09;82.36
76040;SHT30;64736;50.462;4.850;2023-03-04T04:04:56;1.21;83.14
76040;SHT30;64736;50.462;4.850;2023-03-04T04:07:22;1.24;82.46
76040;SHT30;64736;50.462;4.850;2023-03-04T04:09:47;1.08;83.24
76040;SHT30;64736;50.462;4.850;2023-03-04T04:12:15;1.49;82.95
76040;SHT30;64736;50.462;4.850;2023-03-04T04:14:41;2.29;80.27
76040;SHT30;64736;50.462;4.850;2023-03-04T04:17:08;2.00;78.97
76040;SHT30;64736;50.462;4.850;2023-03-04T04:19:34;1.29;82.07
76040;SHT30;64736;50.462;4.850;2023-03-04T04:22:01;1.28;82.38
76040;SHT30;64736;50.462;4.850;2023-03-04T04:24:27;1.24;82.69
76040;SHT30;64736;50.462;4.850;2023-03-04T04:26:52;1.81;81.59
76040;SHT30;64736;50.462;4.850;2023-03-04T04:29:18;2.01;80.45
76040;SHT30;64736;50.462;4.850;2023-03-04T04:31:44;2.56;78.57
76040;SHT30;64736;50.462;4.850;2023-03-04T04:34:10;2.31;77.85
76040;SHT30;64736;50.462;4.850;2023-03-04T04:36:35;1.29;82.15
76040;SHT30;64736;50.462;4.850;2023-03-04T04:39:01;1.63;82.56
76040;SHT30;64736;50.462;4.850;2023-03-04T04:41:39;1.64;81.94
76040;SHT30;64736;50.462;4.850;2023-03-04T04:44:06;1.26;82.62
76040;SHT30;64736;50.462;4.850;2023-03-04T04:46:32;2.24;80.91
76040;SHT30;64736;50.462;4.850;2023-03-04T04:48:58;2.25;78.94
76040;SHT30;64736;50.462;4.850;2023-03-04T04:51:24;1.25;82.42
76040;SHT30;64736;50.462;4.850;2023-03-04T04:53:50;1.68;82.98
76040;SHT30;64736;50.462;4.850;2023-03-04T04:56:19;2.11;81.60
76040;SHT30;64736;50.462;4.850;2023-03-04T04:58:46;2.63;78.14
76040;SHT30;64736;50.462;4.850;2023-03-04T05:01:13;2.10;78.86
76040;SHT30;64736;50.462;4.850;2023-03-04T05:03:40;1.26;82.76
76040;SHT30;64736;50.462;4.850;2023-03-04T05:06:08;1.46;83.23
76040;SHT30;64736;50.462;4.850;2023-03-04T05:08:34;2.33;80.31
76040;SHT30;64736;50.462;4.850;2023-03-04T05:11:01;2.59;79.15
76040;SHT30;64736;50.462;4.850;2023-03-04T05:13:27;2.26;79.96
76040;SHT30;64736;50.462;4.850;2023-03-04T05:15:54;2.15;80.60
76040;SHT30;64736;50.462;4.850;2023-03-04T05:18:22;2.25;80.74
76040;SHT30;64736;50.462;4.850;2023-03-04T05:20:56;2.83;78.01
76040;SHT30;64736;50.462;4.850;2023-03-04T05:23:22;2.26;78.63
76040;SHT30;64736;50.462;4.850;2023-03-04T05:25:48;1.38;82.80
76040;SHT30;64736;50.462;4.850;2023-03-04T05:28:14;1.42;82.83
76040;SHT30;64736;50.462;4.850;2023-03-04T05:30:42;1.90;82.33
76040;SHT30;64736;50.462;4.850;2023-03-04T05:33:09;2.07;81.52
76040;SHT30;64736;50.462;4.850;2023-03-04T05:35:37;2.26;80.50
76040;SHT30;64736;50.462;4.850;2023-03-04T05:38:04;2.75;79.44
76040;SHT30;64736;50.462;4.850;2023-03-04T05:40:31;2.93;78.60
76040;SHT30;64736;50.462;4.850;2023-03-04T05:42:57;2.69;78.44
76040;SHT30;64736;50.462;4.850;2023-03-04T05:45:24;2.10;80.13
76040;SHT30;64736;50.462;4.850;2023-03-04T05:47:50;2.11;80.89
76040;SHT30;64736;50.462;4.850;2023-03-04T05:50:16;1.97;81.15
76040;SHT30;64736;50.462;4.850;2023-03-04T05:52:42;1.64;82.14
76040;SHT30;64736;50.462;4.850;2023-03-04T05:55:08;2.42;81.61
76040;SHT30;64736;50.462;4.850;2023-03-04T05:57:34;2.93;78.51
76040;SHT30;64736;50.462;4.850;2023-03-04T06:00:00;3.07;77.94
76040;SHT30;64736;50.462;4.850;2023-03-04T06:02:26;2.84;78.19
76040;SHT30;64736;50.462;4.850;2023-03-04T06:04:52;2.17;80.53
76040;SHT30;64736;50.462;4.850;2023-03-04T06:07:18;1.67;82.47
76040;SHT30;64736;50.462;4.850;2023-03-04T06:09:43;2.10;82.28
76040;SHT30;64736;50.462;4.850;2023-03-04T06:12:10;1.94;81.75
76040;SHT30;64736;50.462;4.850;2023-03-04T06:14:36;2.79;79.42
76040;SHT30;64736;50.462;4.850;2023-03-04T06:17:02;2.96;78.40
76040;SHT30;64736;50.462;4.850;2023-03-04T06:19:28;3.00;77.78
76040;SHT30;64736;50.462;4.850;2023-03-04T06:21:54;3.14;78.11
76040;SHT30;64736;50.462;4.850;2023-03-04T06:24:20;2.98;78.28
76040;SHT30;64736;50.462;4.850;2023-03-04T06:26:45;3.04;78.37
76040;SHT30;64736;50.462;4.850;2023-03-04T06:29:11;2.87;77.35
76040;SHT30;64736;50.462;4.850;2023-03-04T06:31:37;3.00;78.29
76040;SHT30;64736;50.462;4.850;2023-03-04T06:34:04;3.01;77.10
76040;SHT30;64736;50.462;4.850;2023-03-04T06:36:29;3.04;78.04
76040;SHT30;64736;50.462;4.850;2023-03-04T06:38:55;3.51;77.08
76040;SHT30;64736;50.462;4.850;2023-03-04T06:41:21;3.65;76.17
76040;SHT30;64736;50.462;4.850;2023-03-04T06:43:46;3.62;76.35
76040;SHT30;64736;50.462;4.850;2023-03-04T06:46:12;3.42;76.93
76040;SHT30;64736;50.462;4.850;2023-03-04T06:48:38;3.27;77.91
76040;SHT30;64736;50.462;4.850;2023-03-04T06:51:06;3.40;78.28
76040;SHT30;64736;50.462;4.850;2023-03-04T06:53:31;3.55;77.57
76040;SHT30;64736;50.462;4.850;2023-03-04T06:55:57;3.12;77.70
76040;SHT30;64736;50.462;4.850;2023-03-04T06:58:23;3.07;78.62
76040;SHT30;64736;50.462;4.850;2023-03-04T07:00:49;2.97;78.52
76040;SHT30;64736;50.462;4.850;2023-03-04T07:03:14;3.08;78.56
76040;SHT30;64736;50.462;4.850;2023-03-04T07:05:41;2.97;77.94
76040;SHT30;64736;50.462;4.850;2023-03-04T07:08:07;3.15;77.85
76040;SHT30;64736;50.462;4.850;2023-03-04T07:10:34;3.46;77.59
76040;SHT30;64736;50.462;4.850;2023-03-04T07:13:00;3.87;75.79
76040;SHT30;64736;50.462;4.850;2023-03-04T07:15:27;3.59;76.15
76040;SHT30;64736;50.462;4.850;2023-03-04T07:17:53;3.77;76.04
76040;SHT30;64736;50.462;4.850;2023-03-04T07:20:19;3.82;75.60
76040;SHT30;64736;50.462;4.850;2023-03-04T07:22:44;3.79;74.84
76040;SHT30;64736;50.462;4.850;2023-03-04T07:25:10;3.55;75.02
76040;SHT30;64736;50.462;4.850;2023-03-04T07:27:36;3.18;76.71
76040;SHT30;64736;50.462;4.850;2023-03-04T07:30:04;3.32;76.84
76040;SHT30;64736;50.462;4.850;2023-03-04T07:32:30;3.27;77.03
76040;SHT30;64736;50.462;4.850;2023-03-04T07:34:59;3.14;77.31
76040;SHT30;64736;50.462;4.850;2023-03-04T07:37:25;3.29;76.38
76040;SHT30;64736;50.462;4.850;2023-03-04T07:39:51;3.28;76.30
76040;SHT30;64736;50.462;4.850;2023-03-04T07:42:16;3.22;76.81
76040;SHT30;64736;50.462;4.850;2023-03-04T07:44:42;3.32;76.50
76040;SHT30;64736;50.462;4.850;2023-03-04T07:47:08;3.51;75.27
76040;SHT30;64736;50.462;4.850;2023-03-04T07:49:33;3.49;75.54
76040;SHT30;64736;50.462;4.850;2023-03-04T07:52:02;3.51;75.69
76040;SHT30;64736;50.462;4.850;2023-03-04T07:54:29;3.45;75.90
76040;SHT30;64736;50.462;4.850;2023-03-04T07:56:54;3.51;75.79
76040;SHT30;64736;50.462;4.850;2023-03-04T07:59:20;3.56;75.93
76040;SHT30;64736;50.462;4.850;2023-03-04T08:01:46;3.65;75.58
76040;SHT30;64736;50.462;4.850;2023-03-04T08:04:12;3.54;75.87
76040;SHT30;64736;50.462;4.850;2023-03-04T08:06:40;3.62;75.34
76040;SHT30;64736;50.462;4.850;2023-03-04T08:09:07;3.55;75.90
76040;SHT30;64736;50.462;4.850;2023-03-04T08:11:35;3.66;75.48
76040;SHT30;64736;50.462;4.850;2023-03-04T08:14:01;3.59;75.99
76040;SHT30;64736;50.462;4.850;2023-03-04T08:16:28;3.70;75.55
76040;SHT30;64736;50.462;4.850;2023-03-04T08:18:56;3.69;75.58
76040;SHT30;64736;50.462;4.850;2023-03-04T08:21:23;3.72;75.70
76040;SHT30;64736;50.462;4.850;2023-03-04T08:23:50;3.89;74.67
76040;SHT30;64736;50.462;4.850;2023-03-04T08:26:22;3.82;74.98
76040;SHT30;64736;50.462;4.850;2023-03-04T08:28:49;3.86;75.10
76040;SHT30;64736;50.462;4.850;2023-03-04T08:31:16;3.86;74.77
76040;SHT30;64736;50.462;4.850;2023-03-04T08:33:43;3.96;74.65
76040;SHT30;64736;50.462;4.850;2023-03-04T08:36:09;3.98;74.37
76040;SHT30;64736;50.462;4.850;2023-03-04T08:38:35;3.94;74.60
76040;SHT30;64736;50.462;4.850;2023-03-04T08:41:01;4.07;74.45
76040;SHT30;64736;50.462;4.850;2023-03-04T08:43:29;3.91;74.70
76040;SHT30;64736;50.462;4.850;2023-03-04T08:45:55;4.00;74.80
76040;SHT30;64736;50.462;4.850;2023-03-04T08:48:21;3.98;74.69
76040;SHT30;64736;50.462;4.850;2023-03-04T08:50:48;4.01;74.75
76040;SHT30;64736;50.462;4.850;2023-03-04T08:53:15;4.07;74.19
76040;SHT30;64736;50.462;4.850;2023-03-04T08:55:41;4.17;73.62
76040;SHT30;64736;50.462;4.850;2023-03-04T08:58:08;4.22;74.08
76040;SHT30;64736;50.462;4.850;2023-03-04T09:00:37;4.44;73.79
76040;SHT30;64736;50.462;4.850;2023-03-04T09:03:03;4.21;73.97
76040;SHT30;64736;50.462;4.850;2023-03-04T09:05:30;4.17;73.81
76040;SHT30;64736;50.462;4.850;2023-03-04T09:07:56;4.28;73.36
76040;SHT30;64736;50.462;4.850;2023-03-04T09:10:22;4.38;73.43
76040;SHT30;64736;50.462;4.850;2023-03-04T09:12:48;4.28;73.64
76040;SHT30;64736;50.462;4.850;2023-03-04T09:15:14;4.35;73.42
76040;SHT30;64736;50.462;4.850;2023-03-04T09:17:40;4.30;73.89
76040;SHT30;64736;50.462;4.850;2023-03-04T09:20:08;4.52;73.35
76040;SHT30;64736;50.462;4.850;2023-03-04T09:22:36;4.46;72.81
76040;SHT30;64736;50.462;4.850;2023-03-04T09:25:02;4.38;73.15
76040;SHT30;64736;50.462;4.850;2023-03-04T09:27:28;4.52;72.70
76040;SHT30;64736;50.462;4.850;2023-03-04T09:29:53;4.65;72.76
76040;SHT30;64736;50.462;4.850;2023-03-04T09:32:19;4.66;72.16
76040;SHT30;64736;50.462;4.850;2023-03-04T09:34:45;4.52;72.48
76040;SHT30;64736;50.462;4.850;2023-03-04T09:37:11;4.52;72.09
76040;SHT30;64736;50.462;4.850;2023-03-04T09:39:37;4.51;72.20
76040;SHT30;64736;50.462;4.850;2023-03-04T09:42:03;4.65;71.78
76040;SHT30;64736;50.462;4.850;2023-03-04T09:47:21;4.62;71.68
76040;SHT30;64736;50.462;4.850;2023-03-04T09:49:57;4.62;71.81
76040;SHT30;64736;50.462;4.850;2023-03-04T09:55:38;4.75;71.25
76040;SHT30;64736;50.462;4.850;2023-03-04T10:01:02;4.90;71.12
76040;SHT30;64736;50.462;4.850;2023-03-04T10:03:54;5.10;71.27
76040;SHT30;64736;50.462;4.850;2023-03-04T10:06:23;5.07;71.28
76040;SHT30;64736;50.462;4.850;2023-03-04T10:08:57;4.77;71.64
76040;SHT30;64736;50.462;4.850;2023-03-04T10:11:35;4.73;72.30
76040;SHT30;64736;50.462;4.850;2023-03-04T10:16:51;4.80;72.16
76040;SHT30;64736;50.462;4.850;2023-03-04T10:19:23;4.84;72.58
76040;SHT30;64736;50.462;4.850;2023-03-04T10:21:51;4.86;72.46
76040;SHT30;64736;50.462;4.850;2023-03-04T10:24:20;4.89;72.54
76040;SHT30;64736;50.462;4.850;2023-03-04T10:27:09;4.87;72.57
76040;SHT30;64736;50.462;4.850;2023-03-04T10:29:38;4.83;72.74
76040;SHT30;64736;50.462;4.850;2023-03-04T10:32:04;4.96;72.55
76040;SHT30;64736;50.462;4.850;2023-03-04T10:34:33;5.07;72.20
76040;SHT30;64736;50.462;4.850;2023-03-04T10:37:02;4.94;72.67
76040;SHT30;64736;50.462;4.850;2023-03-04T10:42:06;4.99;72.62
76040;SHT30;64736;50.462;4.850;2023-03-04T10:44:53;5.13;72.49
76040;SHT30;64736;50.462;4.850;2023-03-04T10:47:27;5.14;72.43
76040;SHT30;64736;50.462;4.850;2023-03-04T10:49:58;5.27;72.07
76040;SHT30;64736;50.462;4.850;2023-03-04T10:55:02;5.03;72.57
76040;SHT30;64736;50.462;4.850;2023-03-04T10:57:36;5.27;72.16
76040;SHT30;64736;50.462;4.850;2023-03-04T11:02:38;5.32;71.11
76040;SHT30;64736;50.462;4.850;2023-03-04T11:07:49;5.34;71.09
76040;SHT30;64736;50.462;4.850;2023-03-04T11:13:19;5.27;70.97
76040;SHT30;64736;50.462;4.850;2023-03-04T11:16:05;5.42;69.48
76040;SHT30;64736;50.462;4.850;2023-03-04T11:18:55;5.61;69.42
76040;SHT30;64736;50.462;4.850;2023-03-04T11:21:24;5.59;69.34
76040;SHT30;64736;50.462;4.850;2023-03-04T11:24:12;5.44;68.65
76040;SHT30;64736;50.462;4.850;2023-03-04T11:37:40;5.59;69.13
76040;SHT30;64736;50.462;4.850;2023-03-04T11:40:12;5.54;68.93
76040;SHT30;64736;50.462;4.850;2023-03-04T11:43:01;5.50;69.22
76040;SHT30;64736;50.462;4.850;2023-03-04T11:51:02;5.51;69.55
76040;SHT30;64736;50.462;4.850;2023-03-04T11:53:49;5.52;69.64
76040;SHT30;64736;50.462;4.850;2023-03-04T11:56:33;5.47;69.86
76040;SHT30;64736;50.462;4.850;2023-03-04T12:02:19;5.73;68.83
76040;SHT30;64736;50.462;4.850;2023-03-04T12:10:24;6.16;67.55
76040;SHT30;64736;50.462;4.850;2023-03-04T12:16:15;5.80;68.74
76040;SHT30;64736;50.462;4.850;2023-03-04T12:27:28;5.98;69.11
76040;SHT30;64736;50.462;4.850;2023-03-04T12:35:58;5.76;69.52
76040;SHT30;64736;50.462;4.850;2023-03-04T12:38:42;5.96;69.42
76040;SHT30;64736;50.462;4.850;2023-03-04T12:52:02;5.95;69.72
76040;SHT30;64736;50.462;4.850;2023-03-04T12:55:01;5.78;70.10
76040;SHT30;64736;50.462;4.850;2023-03-04T12:57:26;5.90;69.94
76040;SHT30;64736;50.462;4.850;2023-03-04T13:05:32;6.10;68.94
76040;SHT30;64736;50.462;4.850;2023-03-04T13:10:52;6.31;67.68
76040;SHT30;64736;50.462;4.850;2023-03-04T13:13:36;6.09;68.50
76040;SHT30;64736;50.462;4.850;2023-03-04T13:41:20;6.24;68.64
76040;SHT30;64736;50.462;4.850;2023-03-04T13:43:49;6.47;67.47
76040;SHT30;64736;50.462;4.850;2023-03-04T13:51:35;6.34;67.60
76040;SHT30;64736;50.462;4.850;2023-03-04T13:54:20;6.24;67.95
76040;SHT30;64736;50.462;4.850;2023-03-04T13:57:18;6.47;67.81
76040;SHT30;64736;50.462;4.850;2023-03-04T13:59:54;6.24;67.81
76040;SHT30;64736;50.462;4.850;2023-03-04T14:02:22;6.21;68.34
76040;SHT30;64736;50.462;4.850;2023-03-04T14:07:35;6.40;68.15
76040;SHT30;64736;50.462;4.850;2023-03-04T14:10:17;6.28;67.88
76040;SHT30;64736;50.462;4.850;2023-03-04T14:15:24;6.23;68.26
76040;SHT30;64736;50.462;4.850;2023-03-04T14:17:55;6.16;68.67
76040;SHT30;64736;50.462;4.850;2023-03-04T14:20:27;6.23;68.38
76040;SHT30;64736;50.462;4.850;2023-03-04T14:22:55;6.06;68.90
76040;SHT30;64736;50.462;4.850;2023-03-04T14:25:33;6.26;68.68
76040;SHT30;64736;50.462;4.850;2023-03-04T14:30:29;6.19;68.99
76040;SHT30;64736;50.462;4.850;2023-03-04T14:32:57;6.33;68.63
76040;SHT30;64736;50.462;4.850;2023-03-04T14:35:26;6.67;68.09
76040;SHT30;64736;50.462;4.850;2023-03-04T14:38:02;6.65;67.05
76040;SHT30;64736;50.462;4.850;2023-03-04T14:43:03;6.82;66.97
76040;SHT30;64736;50.462;4.850;2023-03-04T14:45:30;6.71;67.02
76040;SHT30;64736;50.462;4.850;2023-03-04T14:48:03;7.20;66.16
76040;SHT30;64736;50.462;4.850;2023-03-04T14:50:30;6.84;66.20
76040;SHT30;64736;50.462;4.850;2023-03-04T14:53:24;7.36;65.02
76040;SHT30;64736;50.462;4.850;2023-03-04T14:56:08;7.36;64.03
76040;SHT30;64736;50.462;4.850;2023-03-04T14:58:36;7.65;64.03
76040;SHT30;64736;50.462;4.850;2023-03-04T15:01:20;7.95;62.76
76040;SHT30;64736;50.462;4.850;2023-03-04T15:06:28;7.07;66.18
76040;SHT30;64736;50.462;4.850;2023-03-04T15:09:07;7.33;65.85
76040;SHT30;64736;50.462;4.850;2023-03-04T15:12:07;7.26;65.25
76040;SHT30;64736;50.462;4.850;2023-03-04T15:14:48;6.88;66.47
76040;SHT30;64736;50.462;4.850;2023-03-04T15:17:39;6.85;67.45
76040;SHT30;64736;50.462;4.850;2023-03-04T15:25:21;7.15;66.82
76040;SHT30;64736;50.462;4.850;2023-03-04T15:27:48;7.16;66.31
76040;SHT30;64736;50.462;4.850;2023-03-04T15:30:26;6.72;67.68
76040;SHT30;64736;50.462;4.850;2023-03-04T15:32:55;6.55;68.16
76040;SHT30;64736;50.462;4.850;2023-03-04T15:35:29;6.51;69.10
76040;SHT30;64736;50.462;4.850;2023-03-04T15:38:01;6.65;68.46
76040;SHT30;64736;50.462;4.850;2023-03-04T15:40:37;6.91;68.37
76040;SHT30;64736;50.462;4.850;2023-03-04T15:43:05;6.82;68.59
76040;SHT30;64736;50.462;4.850;2023-03-04T15:45:40;6.58;68.85
76040;SHT30;64736;50.462;4.850;2023-03-04T15:48:23;6.40;69.58
76040;SHT30;64736;50.462;4.850;2023-03-04T15:51:01;6.42;69.61
76040;SHT30;64736;50.462;4.850;2023-03-04T15:53:38;6.97;68.19
76040;SHT30;64736;50.462;4.850;2023-03-04T15:56:11;7.15;67.65
76040;SHT30;64736;50.462;4.850;2023-03-04T15:58:39;7.00;67.72
76040;SHT30;64736;50.462;4.850;2023-03-04T16:01:05;7.30;68.06
76040;SHT30;64736;50.462;4.850;2023-03-04T16:03:31;7.10;66.96
76040;SHT30;64736;50.462;4.850;2023-03-04T16:06:00;7.12;68.12
76040;SHT30;64736;50.462;4.850;2023-03-04T16:08:28;7.58;66.05
76040;SHT30;64736;50.462;4.850;2023-03-04T16:10:55;7.68;65.86
76040;SHT30;64736;50.462;4.850;2023-03-04T16:13:27;7.54;66.16
76040;SHT30;64736;50.462;4.850;2023-03-04T16:15:54;7.53;66.39
76040;SHT30;64736;50.462;4.850;2023-03-04T16:18:22;7.46;66.59
76040;SHT30;64736;50.462;4.850;2023-03-04T16:20:51;7.07;68.60
76040;SHT30;64736;50.462;4.850;2023-03-04T16:23:22;6.68;69.74
76040;SHT30;64736;50.462;4.850;2023-03-04T16:25:53;6.64;69.90
76040;SHT30;64736;50.462;4.850;2023-03-04T16:28:20;6.59;70.59
76040;SHT30;64736;50.462;4.850;2023-03-04T16:30:47;6.67;70.28
76040;SHT30;64736;50.462;4.850;2023-03-04T16:33:14;7.37;67.57
76040;SHT30;64736;50.462;4.850;2023-03-04T16:35:42;6.63;70.30
76040;SHT30;64736;50.462;4.850;2023-03-04T16:38:21;7.37;67.90
76040;SHT30;64736;50.462;4.850;2023-03-04T16:40:51;7.44;67.59
76040;SHT30;64736;50.462;4.850;2023-03-04T16:43:17;7.43;67.45
76040;SHT30;64736;50.462;4.850;2023-03-04T16:45:43;7.30;67.85
76040;SHT30;64736;50.462;4.850;2023-03-04T16:48:12;7.24;68.20
76040;SHT30;64736;50.462;4.850;2023-03-04T16:50:38;7.24;68.26
76040;SHT30;64736;50.462;4.850;2023-03-04T16:53:05;6.67;69.96
76040;SHT30;64736;50.462;4.850;2023-03-04T16:55:41;6.99;70.09
76040;SHT30;64736;50.462;4.850;2023-03-04T16:58:08;7.22;69.02
76040;SHT30;64736;50.462;4.850;2023-03-04T17:00:35;7.26;68.56
76040;SHT30;64736;50.462;4.850;2023-03-04T17:03:04;7.19;68.75
76040;SHT30;64736;50.462;4.850;2023-03-04T17:05:31;6.89;69.55
76040;SHT30;64736;50.462;4.850;2023-03-04T17:07:57;7.06;69.92
76040;SHT30;64736;50.462;4.850;2023-03-04T17:10:25;7.20;69.27
76040;SHT30;64736;50.462;4.850;2023-03-04T17:12:51;7.19;69.29
76040;SHT30;64736;50.462;4.850;2023-03-04T17:15:17;7.17;69.15
76040;SHT30;64736;50.462;4.850;2023-03-04T17:17:43;7.09;69.60
76040;SHT30;64736;50.462;4.850;2023-03-04T17:20:12;7.10;69.83
76040;SHT30;64736;50.462;4.850;2023-03-04T17:22:39;7.15;69.36
76040;SHT30;64736;50.462;4.850;2023-03-04T17:25:05;7.15;69.36
76040;SHT30;64736;50.462;4.850;2023-03-04T17:27:31;6.68;70.34
76040;SHT30;64736;50.462;4.850;2023-03-04T17:29:59;6.92;70.56
76040;SHT30;64736;50.462;4.850;2023-03-04T17:32:25;7.02;69.94
76040;SHT30;64736;50.462;4.850;2023-03-04T17:34:53;7.02;70.08
76040;SHT30;64736;50.462;4.850;2023-03-04T17:37:22;7.03;70.01
76040;SHT30;64736;50.462;4.850;2023-03-04T17:39:47;6.93;70.34
76040;SHT30;64736;50.462;4.850;2023-03-04T17:42:17;6.95;70.33
76040;SHT30;64736;50.462;4.850;2023-03-04T17:44:43;6.92;70.51
76040;SHT30;64736;50.462;4.850;2023-03-04T17:47:12;6.93;70.53
76040;SHT30;64736;50.462;4.850;2023-03-04T17:49:37;6.88;70.91
76040;SHT30;64736;50.462;4.850;2023-03-04T17:52:03;6.89;70.74
76040;SHT30;64736;50.462;4.850;2023-03-04T17:54:29;6.91;70.82
76040;SHT30;64736;50.462;4.850;2023-03-04T17:56:55;6.88;70.93
76040;SHT30;64736;50.462;4.850;2023-03-04T17:59:23;6.89;71.10
76040;SHT30;64736;50.462;4.850;2023-03-04T18:01:49;6.91;71.00
76040;SHT30;64736;50.462;4.850;2023-03-04T18:04:15;6.91;71.07
76040;SHT30;64736;50.462;4.850;2023-03-04T18:06:41;6.89;71.37
76040;SHT30;64736;50.462;4.850;2023-03-04T18:09:07;6.86;71.40
76040;SHT30;64736;50.462;4.850;2023-03-04T18:11:36;6.82;71.69
76040;SHT30;64736;50.462;4.850;2023-03-04T18:14:02;6.81;71.82
76040;SHT30;64736;50.462;4.850;2023-03-04T18:16:28;6.78;71.82